sensor_id;sensor_type;location;lat;lon;timestamp;pressure;altitude;pressure_sealevel;temperature;humidity
78313;BME280;67568;47.438;21.408;2023-08-08T00:01:13;100334.06;;;15.77;83.28
78313;BME280;67568;47.438;21.408;2023-08-08T00:03:39;100343.75;;;15.79;83.00
78313;BME280;67568;47.438;21.408;2023-08-08T00:06:06;100342.94;;;15.79;83.24
78313;BME280;67568;47.438;21.408;2023-08-08T00:08:33;100342.78;;;15.75;83.98
78313;BME280;67568;47.438;21.408;2023-08-08T00:11:00;100339.38;;;15.69;83.63
78313;BME280;67568;47.438;21.408;2023-08-08T00:13:27;100351.72;;;15.68;83.76
78313;BME280;67568;47.438;21.408;2023-08-08T00:15:54;100347.78;;;15.61;84.47
78313;BME280;67568;47.438;21.408;2023-08-08T00:18:20;100344.78;;;15.66;83.64
78313;BME280;67568;47.438;21.408;2023-08-08T00:20:48;100347.91;;;15.64;83.43
78313;BME280;67568;47.438;21.408;2023-08-08T00:23:15;100354.78;;;15.67;83.57
78313;BME280;67568;47.438;21.408;2023-08-08T00:25:43;100349.06;;;15.63;83.68
78313;BME280;67568;47.438;21.408;2023-08-08T00:28:10;100354.16;;;15.61;83.48
78313;BME280;67568;47.438;21.408;2023-08-08T00:30:37;100352.19;;;15.62;84.04
78313;BME280;67568;47.438;21.408;2023-08-08T00:33:04;100364.53;;;15.61;83.31
78313;BME280;67568;47.438;21.408;2023-08-08T00:35:31;100369.13;;;15.57;83.44
78313;BME280;67568;47.438;21.408;2023-08-08T00:37:57;100375.22;;;15.59;84.07
78313;BME280;67568;47.438;21.408;2023-08-08T00:40:24;100367.19;;;15.57;83.77
78313;BME280;67568;47.438;21.408;2023-08-08T00:42:51;100369.81;;;15.53;84.29
78313;BME280;67568;47.438;21.408;2023-08-08T00:45:18;100377.03;;;15.55;84.38
78313;BME280;67568;47.438;21.408;2023-08-08T00:47:44;100387.41;;;15.54;84.40
78313;BME280;67568;47.438;21.408;2023-08-08T00:50:12;100385.47;;;15.46;84.78
78313;BME280;67568;47.438;21.408;2023-08-08T00:52:40;100387.13;;;15.38;84.19
78313;BME280;67568;47.438;21.408;2023-08-08T00:55:08;100396.16;;;15.35;85.04
78313;BME280;67568;47.438;21.408;2023-08-08T00:57:35;100388.59;;;15.36;85.45
78313;BME280;67568;47.438;21.408;2023-08-08T01:00:02;100387.28;;;15.33;84.56
78313;BME280;67568;47.438;21.408;2023-08-08T01:02:29;100388.31;;;15.28;85.52
78313;BME280;67568;47.438;21.408;2023-08-08T01:04:56;100402.25;;;15.37;85.56
78313;BME280;67568;47.438;21.408;2023-08-08T01:07:31;100391.72;;;15.43;84.85
78313;BME280;67568;47.438;21.408;2023-08-08T01:10:12;100391.53;;;15.39;85.26
78313;BME280;67568;47.438;21.408;2023-08-08T01:12:50;100392.38;;;15.40;84.86
78313;BME280;67568;47.438;21.408;2023-08-08T01:15:19;100391.53;;;15.39;84.69
78313;BME280;67568;47.438;21.408;2023-08-08T01:17:47;100396.31;;;15.39;85.29
78313;BME280;67568;47.438;21.408;2023-08-08T01:20:15;100400.41;;;15.41;84.57
78313;BME280;67568;47.438;21.408;2023-08-08T01:25:17;100398.44;;;15.42;85.06
78313;BME280;67568;47.438;21.408;2023-08-08T01:27:44;100395.50;;;15.38;84.88
78313;BME280;67568;47.438;21.408;2023-08-08T01:30:11;100402.38;;;15.41;85.27
78313;BME280;67568;47.438;21.408;2023-08-08T01:32:38;100392.53;;;15.43;84.47
78313;BME280;67568;47.438;21.408;2023-08-08T01:35:05;100393.84;;;15.46;84.71
78313;BME280;67568;47.438;21.408;2023-08-08T01:37:36;100397.75;;;15.45;85.07
78313;BME280;67568;47.438;21.408;2023-08-08T01:40:06;100391.03;;;15.46;84.74
78313;BME280;67568;47.438;21.408;2023-08-08T01:42:33;100395.31;;;15.43;84.89
78313;BME280;67568;47.438;21.408;2023-08-08T01:45:00;100398.09;;;15.43;84.92
78313;BME280;67568;47.438;21.408;2023-08-08T01:47:27;100396.94;;;15.44;85.03
78313;BME280;67568;47.438;21.408;2023-08-08T01:49:54;100400.56;;;15.45;85.10
78313;BME280;67568;47.438;21.408;2023-08-08T01:52:21;100394.69;;;15.38;85.52
78313;BME280;67568;47.438;21.408;2023-08-08T01:54:48;100398.81;;;15.32;85.58
78313;BME280;67568;47.438;21.408;2023-08-08T01:57:14;100396.34;;;15.30;85.20
78313;BME280;67568;47.438;21.408;2023-08-08T01:59:41;100395.03;;;15.27;85.86
78313;BME280;67568;47.438;21.408;2023-08-08T02:02:08;100398.19;;;15.17;85.96
78313;BME280;67568;47.438;21.408;2023-08-08T02:04:35;100393.09;;;15.11;86.55
78313;BME280;67568;47.438;21.408;2023-08-08T02:07:02;100403.63;;;15.05;86.88
78313;BME280;67568;47.438;21.408;2023-08-08T02:09:28;100406.06;;;15.15;86.61
78313;BME280;67568;47.438;21.408;2023-08-08T02:11:55;100401.63;;;15.23;86.52
78313;BME280;67568;47.438;21.408;2023-08-08T02:14:23;100410.97;;;15.27;86.51
78313;BME280;67568;47.438;21.408;2023-08-08T02:16:49;100420.81;;;15.24;85.74
78313;BME280;67568;47.438;21.408;2023-08-08T02:19:16;100427.72;;;15.27;85.72
78313;BME280;67568;47.438;21.408;2023-08-08T02:21:44;100435.94;;;15.23;86.54
78313;BME280;67568;47.438;21.408;2023-08-08T02:24:11;100444.31;;;15.23;86.16
78313;BME280;67568;47.438;21.408;2023-08-08T02:26:38;100442.19;;;15.20;86.38
78313;BME280;67568;47.438;21.408;2023-08-08T02:29:05;100452.53;;;15.11;86.69
78313;BME280;67568;47.438;21.408;2023-08-08T02:31:31;100446.78;;;15.07;86.81
78313;BME280;67568;47.438;21.408;2023-08-08T02:33:58;100441.19;;;15.07;86.30
78313;BME280;67568;47.438;21.408;2023-08-08T02:36:33;100433.19;;;15.06;86.37
78313;BME280;67568;47.438;21.408;2023-08-08T02:39:00;100446.13;;;15.02;87.22
78313;BME280;67568;47.438;21.408;2023-08-08T02:41:27;100445.31;;;15.01;86.96
78313;BME280;67568;47.438;21.408;2023-08-08T02:43:54;100449.75;;;15.02;86.84
78313;BME280;67568;47.438;21.408;2023-08-08T02:46:20;100438.44;;;14.99;87.13
78313;BME280;67568;47.438;21.408;2023-08-08T02:48:47;100441.06;;;14.95;86.57
78313;BME280;67568;47.438;21.408;2023-08-08T02:51:14;100444.50;;;14.92;86.76
78313;BME280;67568;47.438;21.408;2023-08-08T02:53:41;100449.28;;;14.92;86.86
78313;BME280;67568;47.438;21.408;2023-08-08T02:56:08;100454.66;;;14.88;87.08
78313;BME280;67568;47.438;21.408;2023-08-08T02:58:34;100454.53;;;14.76;87.18
78313;BME280;67568;47.438;21.408;2023-08-08T03:01:01;100457.16;;;14.72;88.04
78313;BME280;67568;47.438;21.408;2023-08-08T03:03:28;100454.00;;;14.74;87.13
78313;BME280;67568;47.438;21.408;2023-08-08T03:05:55;100459.28;;;14.75;87.48
78313;BME280;67568;47.438;21.408;2023-08-08T03:08:22;100458.31;;;14.80;87.42
78313;BME280;67568;47.438;21.408;2023-08-08T03:10:49;100454.38;;;14.81;87.60
78313;BME280;67568;47.438;21.408;2023-08-08T03:13:16;100462.56;;;14.77;88.29
78313;BME280;67568;47.438;21.408;2023-08-08T03:15:43;100457.47;;;14.79;87.37
78313;BME280;67568;47.438;21.408;2023-08-08T03:18:09;100463.03;;;14.79;87.83
78313;BME280;67568;47.438;21.408;2023-08-08T03:20:36;100473.22;;;14.75;87.02
78313;BME280;67568;47.438;21.408;2023-08-08T03:23:03;100473.22;;;14.75;87.41
78313;BME280;67568;47.438;21.408;2023-08-08T03:25:30;100471.09;;;14.72;87.20
78313;BME280;67568;47.438;21.408;2023-08-08T03:27:57;100467.00;;;14.70;86.50
78313;BME280;67568;47.438;21.408;2023-08-08T03:30:24;100467.00;;;14.70;86.99
78313;BME280;67568;47.438;21.408;2023-08-08T03:32:50;100479.78;;;14.71;87.30
78313;BME280;67568;47.438;21.408;2023-08-08T03:35:17;100485.69;;;14.69;87.38
78313;BME280;67568;47.438;21.408;2023-08-08T03:37:44;100486.50;;;14.70;86.68
78313;BME280;67568;47.438;21.408;2023-08-08T03:40:11;100478.97;;;14.70;87.41
78313;BME280;67568;47.438;21.408;2023-08-08T03:42:38;100491.94;;;14.75;87.43
78313;BME280;67568;47.438;21.408;2023-08-08T03:45:05;100492.41;;;14.77;87.63
78313;BME280;67568;47.438;21.408;2023-08-08T03:47:32;100495.38;;;14.80;87.72
78313;BME280;67568;47.438;21.408;2023-08-08T03:49:59;100495.84;;;14.82;86.53
78313;BME280;67568;47.438;21.408;2023-08-08T03:52:26;100496.88;;;14.87;86.58
78313;BME280;67568;47.438;21.408;2023-08-08T03:54:52;100502.44;;;14.87;86.80
78313;BME280;67568;47.438;21.408;2023-08-08T03:57:19;100506.22;;;14.91;87.06
78313;BME280;67568;47.438;21.408;2023-08-08T03:59:46;100509.34;;;14.98;86.80
78313;BME280;67568;47.438;21.408;2023-08-08T04:02:13;100511.13;;;15.02;87.31
78313;BME280;67568;47.438;21.408;2023-08-08T04:04:40;100509.84;;;15.00;86.28
78313;BME280;67568;47.438;21.408;2023-08-08T04:07:06;100513.59;;;14.95;87.47
78313;BME280;67568;47.438;21.408;2023-08-08T04:09:33;100522.94;;;14.91;86.71
78313;BME280;67568;47.438;21.408;2023-08-08T04:12:00;100520.66;;;14.93;86.65
78313;BME280;67568;47.438;21.408;2023-08-08T04:14:27;100513.25;;;14.97;87.16
78313;BME280;67568;47.438;21.408;2023-08-08T04:16:54;100516.25;;;15.00;86.96
78313;BME280;67568;47.438;21.408;2023-08-08T04:19:21;100517.06;;;15.01;86.33
78313;BME280;67568;47.438;21.408;2023-08-08T04:21:49;100514.94;;;15.06;86.26
78313;BME280;67568;47.438;21.408;2023-08-08T04:24:16;100514.56;;;15.08;86.60
78313;BME280;67568;47.438;21.408;2023-08-08T04:26:42;100523.13;;;15.20;85.38
78313;BME280;67568;47.438;21.408;2023-08-08T04:29:09;100525.09;;;15.28;84.92
78313;BME280;67568;47.438;21.408;2023-08-08T04:31:36;100529.19;;;15.40;85.63
78313;BME280;67568;47.438;21.408;2023-08-08T04:34:03;100540.00;;;15.50;84.66
78313;BME280;67568;47.438;21.408;2023-08-08T04:36:30;100541.66;;;15.60;84.58
78313;BME280;67568;47.438;21.408;2023-08-08T04:38:56;100535.22;;;15.59;84.30
78313;BME280;67568;47.438;21.408;2023-08-08T04:41:23;100542.13;;;15.53;83.93
78313;BME280;67568;47.438;21.408;2023-08-08T04:43:50;100539.06;;;15.37;85.08
78313;BME280;67568;47.438;21.408;2023-08-08T04:46:17;100539.53;;;15.30;85.27
78313;BME280;67568;47.438;21.408;2023-08-08T04:48:44;100539.53;;;15.30;85.22
78313;BME280;67568;47.438;21.408;2023-08-08T04:51:11;100542.50;;;15.25;85.99
78313;BME280;67568;47.438;21.408;2023-08-08T04:53:38;100549.38;;;15.37;85.73
78313;BME280;67568;47.438;21.408;2023-08-08T04:56:04;100555.94;;;15.49;85.21
78313;BME280;67568;47.438;21.408;2023-08-08T04:58:31;100563.34;;;15.80;84.37
78313;BME280;67568;47.438;21.408;2023-08-08T05:00:58;100566.34;;;16.13;82.73
78313;BME280;67568;47.438;21.408;2023-08-08T05:03:25;100565.63;;;16.34;81.46
78313;BME280;67568;47.438;21.408;2023-08-08T05:05:52;100569.31;;;16.47;80.89
78313;BME280;67568;47.438;21.408;2023-08-08T05:08:19;100569.19;;;16.43;80.99
78313;BME280;67568;47.438;21.408;2023-08-08T05:10:46;100572.91;;;16.56;80.27
78313;BME280;67568;47.438;21.408;2023-08-08T05:13:13;100579.06;;;16.70;80.01
78313;BME280;67568;47.438;21.408;2023-08-08T05:15:40;100581.69;;;16.75;78.73
78313;BME280;67568;47.438;21.408;2023-08-08T05:18:06;100589.19;;;16.92;78.90
78313;BME280;67568;47.438;21.408;2023-08-08T05:20:34;100592.91;;;17.05;78.50
78313;BME280;67568;47.438;21.408;2023-08-08T05:23:01;100597.47;;;17.09;78.39
78313;BME280;67568;47.438;21.408;2023-08-08T05:25:27;100603.19;;;17.13;77.17
78313;BME280;67568;47.438;21.408;2023-08-08T05:27:54;100601.97;;;17.23;77.54
78313;BME280;67568;47.438;21.408;2023-08-08T05:30:21;100605.59;;;17.23;76.66
78313;BME280;67568;47.438;21.408;2023-08-08T05:32:48;100591.31;;;17.37;76.12
78313;BME280;67568;47.438;21.408;2023-08-08T05:35:15;100594.88;;;17.46;76.02
78313;BME280;67568;47.438;21.408;2023-08-08T05:37:45;100603.47;;;17.62;75.70
78313;BME280;67568;47.438;21.408;2023-08-08T05:40:15;100615.06;;;17.73;74.98
78313;BME280;67568;47.438;21.408;2023-08-08T05:42:42;100614.25;;;17.93;74.01
78313;BME280;67568;47.438;21.408;2023-08-08T05:45:12;100615.41;;;17.92;72.87
78313;BME280;67568;47.438;21.408;2023-08-08T05:47:39;100616.75;;;18.07;72.51
78313;BME280;67568;47.438;21.408;2023-08-08T05:50:06;100604.34;;;18.08;72.53
78313;BME280;67568;47.438;21.408;2023-08-08T05:52:33;100617.09;;;18.18;72.15
78313;BME280;67568;47.438;21.408;2023-08-08T05:55:00;100621.38;;;18.36;71.53
78313;BME280;67568;47.438;21.408;2023-08-08T05:57:27;100617.97;;;18.55;69.96
78313;BME280;67568;47.438;21.408;2023-08-08T05:59:53;100621.63;;;18.68;70.29
78313;BME280;67568;47.438;21.408;2023-08-08T06:02:20;100619.16;;;19.03;70.05
78313;BME280;67568;47.438;21.408;2023-08-08T06:04:47;100626.03;;;19.30;68.08
78313;BME280;67568;47.438;21.408;2023-08-08T06:07:16;100628.91;;;19.59;67.68
78313;BME280;67568;47.438;21.408;2023-08-08T06:09:43;100631.44;;;19.76;66.18
78313;BME280;67568;47.438;21.408;2023-08-08T06:12:10;100626.94;;;19.87;65.16
78313;BME280;67568;47.438;21.408;2023-08-08T06:14:39;100629.38;;;19.89;65.49
78313;BME280;67568;47.438;21.408;2023-08-08T06:17:06;100634.41;;;20.11;64.81
78313;BME280;67568;47.438;21.408;2023-08-08T06:19:33;100635.28;;;20.28;65.03
78313;BME280;67568;47.438;21.408;2023-08-08T06:21:59;100643.09;;;20.50;64.49
78313;BME280;67568;47.438;21.408;2023-08-08T06:24:27;100640.94;;;20.59;64.01
78313;BME280;67568;47.438;21.408;2023-08-08T06:26:54;100644.50;;;20.56;62.66
78313;BME280;67568;47.438;21.408;2023-08-08T06:29:23;100645.75;;;20.75;62.67
78313;BME280;67568;47.438;21.408;2023-08-08T06:31:50;100659.13;;;20.62;62.17
78313;BME280;67568;47.438;21.408;2023-08-08T06:34:19;100663.56;;;20.63;63.19
78313;BME280;67568;47.438;21.408;2023-08-08T06:36:46;100657.66;;;20.68;61.59
78313;BME280;67568;47.438;21.408;2023-08-08T06:39:13;100672.03;;;20.79;62.79
78313;BME280;67568;47.438;21.408;2023-08-08T06:41:39;100670.66;;;20.73;60.81
78313;BME280;67568;47.438;21.408;2023-08-08T06:44:07;100660.66;;;20.59;62.84
78313;BME280;67568;47.438;21.408;2023-08-08T06:46:36;100662.50;;;20.24;63.30
78313;BME280;67568;47.438;21.408;2023-08-08T06:49:03;100671.38;;;20.26;63.92
78313;BME280;67568;47.438;21.408;2023-08-08T06:51:30;100671.09;;;20.15;63.22
78313;BME280;67568;47.438;21.408;2023-08-08T06:53:57;100664.84;;;20.21;63.68
78313;BME280;67568;47.438;21.408;2023-08-08T06:56:24;100667.13;;;20.32;63.56
78313;BME280;67568;47.438;21.408;2023-08-08T06:58:51;100677.09;;;20.13;63.90
78313;BME280;67568;47.438;21.408;2023-08-08T07:01:17;100670.91;;;20.08;64.22
78313;BME280;67568;47.438;21.408;2023-08-08T07:03:45;100672.19;;;19.82;63.87
78313;BME280;67568;47.438;21.408;2023-08-08T07:06:17;100675.97;;;19.62;65.13
78313;BME280;67568;47.438;21.408;2023-08-08T07:08:44;100673.31;;;19.53;65.60
78313;BME280;67568;47.438;21.408;2023-08-08T07:11:11;100675.97;;;19.49;66.50
78313;BME280;67568;47.438;21.408;2023-08-08T07:13:38;100669.63;;;19.65;65.85
78313;BME280;67568;47.438;21.408;2023-08-08T07:16:04;100674.66;;;19.71;65.45
78313;BME280;67568;47.438;21.408;2023-08-08T07:18:31;100678.28;;;19.84;64.88
78313;BME280;67568;47.438;21.408;2023-08-08T07:20:58;100688.19;;;19.94;64.75
78313;BME280;67568;47.438;21.408;2023-08-08T07:23:25;100691.34;;;20.20;63.64
78313;BME280;67568;47.438;21.408;2023-08-08T07:25:51;100694.59;;;20.51;62.82
78313;BME280;67568;47.438;21.408;2023-08-08T07:28:18;100691.84;;;20.66;61.73
78313;BME280;67568;47.438;21.408;2023-08-08T07:30:45;100679.94;;;20.89;61.13
78313;BME280;67568;47.438;21.408;2023-08-08T07:33:12;100687.28;;;21.09;60.33
78313;BME280;67568;47.438;21.408;2023-08-08T07:35:39;100683.22;;;21.42;59.64
78313;BME280;67568;47.438;21.408;2023-08-08T07:38:05;100683.53;;;21.56;59.43
78313;BME280;67568;47.438;21.408;2023-08-08T07:40:32;100682.00;;;21.78;58.84
78313;BME280;67568;47.438;21.408;2023-08-08T07:42:59;100684.34;;;21.57;59.15
78313;BME280;67568;47.438;21.408;2023-08-08T07:45:26;100687.84;;;21.50;59.15
78313;BME280;67568;47.438;21.408;2023-08-08T07:47:52;100686.84;;;21.43;58.76
78313;BME280;67568;47.438;21.408;2023-08-08T07:50:19;100682.94;;;21.47;59.31
78313;BME280;67568;47.438;21.408;2023-08-08T07:52:46;100683.75;;;21.48;59.65
78313;BME280;67568;47.438;21.408;2023-08-08T08:27:24;100674.88;;;22.43;55.75
78313;BME280;67568;47.438;21.408;2023-08-08T08:29:51;100677.56;;;22.82;55.67
78313;BME280;67568;47.438;21.408;2023-08-08T08:32:18;100677.13;;;22.57;55.45
78313;BME280;67568;47.438;21.408;2023-08-08T08:34:45;100678.88;;;22.65;55.40
78313;BME280;67568;47.438;21.408;2023-08-08T08:37:11;100685.31;;;22.42;56.01
78313;BME280;67568;47.438;21.408;2023-08-08T08:39:38;100680.59;;;22.08;56.61
78313;BME280;67568;47.438;21.408;2023-08-08T08:42:06;100680.44;;;21.62;57.44
78313;BME280;67568;47.438;21.408;2023-08-08T08:44:34;100672.84;;;21.66;57.50
78313;BME280;67568;47.438;21.408;2023-08-08T08:47:03;100672.56;;;21.71;57.83
78313;BME280;67568;47.438;21.408;2023-08-08T08:49:31;100670.94;;;21.50;57.93
78313;BME280;67568;47.438;21.408;2023-08-08T08:51:59;100677.13;;;21.40;58.21
78313;BME280;67568;47.438;21.408;2023-08-08T08:54:27;100679.22;;;21.27;58.25
78313;BME280;67568;47.438;21.408;2023-08-08T08:56:55;100677.59;;;21.42;58.12
78313;BME280;67568;47.438;21.408;2023-08-08T08:59:23;100676.09;;;21.48;57.45
78313;BME280;67568;47.438;21.408;2023-08-08T09:01:51;100675.53;;;21.59;56.89
78313;BME280;67568;47.438;21.408;2023-08-08T09:04:19;100676.72;;;21.77;56.98
78313;BME280;67568;47.438;21.408;2023-08-08T09:06:48;100676.97;;;21.88;57.07
78313;BME280;67568;47.438;21.408;2023-08-08T09:09:15;100664.28;;;21.97;56.26
78313;BME280;67568;47.438;21.408;2023-08-08T09:11:48;100672.88;;;21.85;56.77
78313;BME280;67568;47.438;21.408;2023-08-08T09:14:19;100679.72;;;22.04;56.82
78313;BME280;67568;47.438;21.408;2023-08-08T09:16:47;100675.84;;;21.92;55.29
78313;BME280;67568;47.438;21.408;2023-08-08T09:19:15;100676.44;;;22.01;55.03
78313;BME280;67568;47.438;21.408;2023-08-08T09:21:42;100680.38;;;21.97;53.70
78313;BME280;67568;47.438;21.408;2023-08-08T09:24:09;100674.22;;;21.72;55.92
78313;BME280;67568;47.438;21.408;2023-08-08T09:26:37;100680.78;;;21.25;56.74
78313;BME280;67568;47.438;21.408;2023-08-08T09:31:34;100677.47;;;21.54;56.46
78313;BME280;67568;47.438;21.408;2023-08-08T09:34:03;100670.13;;;21.69;54.73
78313;BME280;67568;47.438;21.408;2023-08-08T09:36:30;100667.38;;;22.12;54.27
78313;BME280;67568;47.438;21.408;2023-08-08T09:38:59;100681.06;;;22.29;53.24
78313;BME280;67568;47.438;21.408;2023-08-08T10:17:41;100666.72;;;22.61;51.83
78313;BME280;67568;47.438;21.408;2023-08-08T10:20:09;100665.28;;;22.28;51.60
78313;BME280;67568;47.438;21.408;2023-08-08T10:22:42;100667.16;;;22.63;51.07
78313;BME280;67568;47.438;21.408;2023-08-08T10:25:09;100669.22;;;22.66;50.13
78313;BME280;67568;47.438;21.408;2023-08-08T10:27:43;100663.13;;;22.64;50.88
78313;BME280;67568;47.438;21.408;2023-08-08T10:30:11;100665.81;;;22.57;51.55
78313;BME280;67568;47.438;21.408;2023-08-08T11:13:20;100649.97;;;22.49;52.26
78313;BME280;67568;47.438;21.408;2023-08-08T11:15:47;100652.69;;;22.45;51.35
78313;BME280;67568;47.438;21.408;2023-08-08T11:18:17;100652.44;;;22.31;51.55
78313;BME280;67568;47.438;21.408;2023-08-08T11:20:49;100645.34;;;22.17;52.47
78313;BME280;67568;47.438;21.408;2023-08-08T11:23:19;100650.25;;;22.43;51.82
78313;BME280;67568;47.438;21.408;2023-08-08T11:25:46;100647.94;;;22.72;51.12
78313;BME280;67568;47.438;21.408;2023-08-08T11:28:33;100655.22;;;22.73;49.92
78313;BME280;67568;47.438;21.408;2023-08-08T11:31:01;100651.53;;;22.46;50.07
78313;BME280;67568;47.438;21.408;2023-08-08T11:33:28;100640.91;;;22.39;50.17
78313;BME280;67568;47.438;21.408;2023-08-08T11:35:56;100649.81;;;22.41;50.14
78313;BME280;67568;47.438;21.408;2023-08-08T11:38:23;100649.50;;;22.47;49.78
78313;BME280;67568;47.438;21.408;2023-08-08T11:40:50;100645.84;;;22.23;49.41
78313;BME280;67568;47.438;21.408;2023-08-08T11:43:17;100649.19;;;22.09;49.27
78313;BME280;67568;47.438;21.408;2023-08-08T11:45:44;100646.72;;;22.08;49.86
78313;BME280;67568;47.438;21.408;2023-08-08T11:48:11;100642.69;;;22.28;49.58
78313;BME280;67568;47.438;21.408;2023-08-08T11:50:39;100642.25;;;22.45;49.16
78313;BME280;67568;47.438;21.408;2023-08-08T11:53:12;100644.66;;;22.70;48.80
78313;BME280;67568;47.438;21.408;2023-08-08T11:55:39;100643.59;;;22.78;49.31
78313;BME280;67568;47.438;21.408;2023-08-08T11:58:11;100637.81;;;22.71;48.85
78313;BME280;67568;47.438;21.408;2023-08-08T12:00:38;100634.13;;;22.67;47.30
78313;BME280;67568;47.438;21.408;2023-08-08T12:03:05;100635.09;;;22.52;47.29
78313;BME280;67568;47.438;21.408;2023-08-08T12:05:36;100642.41;;;22.79;47.79
78313;BME280;67568;47.438;21.408;2023-08-08T12:08:05;100635.88;;;22.98;47.70
78313;BME280;67568;47.438;21.408;2023-08-08T12:10:32;100622.50;;;22.95;46.16
78313;BME280;67568;47.438;21.408;2023-08-08T12:12:59;100629.22;;;23.13;45.90
78313;BME280;67568;47.438;21.408;2023-08-08T12:15:31;100624.19;;;23.26;46.43
78313;BME280;67568;47.438;21.408;2023-08-08T12:17:59;100627.16;;;23.37;46.15
78313;BME280;67568;47.438;21.408;2023-08-08T12:20:27;100615.91;;;23.41;46.55
78313;BME280;67568;47.438;21.408;2023-08-08T12:22:55;100618.09;;;23.24;46.33
78313;BME280;67568;47.438;21.408;2023-08-08T12:25:22;100622.75;;;23.40;45.65
78313;BME280;67568;47.438;21.408;2023-08-08T12:27:58;100613.25;;;23.55;45.68
78313;BME280;67568;47.438;21.408;2023-08-08T12:30:24;100620.19;;;23.61;44.28
78313;BME280;67568;47.438;21.408;2023-08-08T12:32:51;100619.94;;;23.40;42.82
78313;BME280;67568;47.438;21.408;2023-08-08T12:35:18;100619.16;;;23.43;43.86
78313;BME280;67568;47.438;21.408;2023-08-08T12:37:45;100619.75;;;23.59;45.02
78313;BME280;67568;47.438;21.408;2023-08-08T12:40:14;100620.16;;;23.57;45.05
78313;BME280;67568;47.438;21.408;2023-08-08T12:42:41;100612.13;;;23.60;43.83
78313;BME280;67568;47.438;21.408;2023-08-08T12:45:10;100613.81;;;23.68;45.03
78313;BME280;67568;47.438;21.408;2023-08-08T12:47:37;100610.38;;;23.51;44.88
78313;BME280;67568;47.438;21.408;2023-08-08T12:50:05;100618.00;;;23.17;45.96
78313;BME280;67568;47.438;21.408;2023-08-08T12:52:32;100613.16;;;23.18;45.87
78313;BME280;67568;47.438;21.408;2023-08-08T12:54:59;100613.03;;;23.37;44.70
78313;BME280;67568;47.438;21.408;2023-08-08T12:57:26;100614.34;;;23.47;44.06
78313;BME280;67568;47.438;21.408;2023-08-08T12:59:53;100610.78;;;23.53;42.36
78313;BME280;67568;47.438;21.408;2023-08-08T13:02:19;100613.25;;;23.55;42.67
78313;BME280;67568;47.438;21.408;2023-08-08T13:04:46;100608.25;;;23.71;42.86
78313;BME280;67568;47.438;21.408;2023-08-08T13:07:13;100605.16;;;23.84;39.15
78313;BME280;67568;47.438;21.408;2023-08-08T13:09:40;100603.09;;;23.81;39.01
78313;BME280;67568;47.438;21.408;2023-08-08T13:12:07;100602.00;;;23.92;40.04
78313;BME280;67568;47.438;21.408;2023-08-08T13:14:34;100611.06;;;24.05;39.41
78313;BME280;67568;47.438;21.408;2023-08-08T13:17:01;100606.69;;;23.77;39.44
78313;BME280;67568;47.438;21.408;2023-08-08T13:19:28;100598.94;;;23.41;40.21
78313;BME280;67568;47.438;21.408;2023-08-08T13:21:55;100595.84;;;23.53;39.54
78313;BME280;67568;47.438;21.408;2023-08-08T13:24:25;100600.84;;;23.63;39.65
78313;BME280;67568;47.438;21.408;2023-08-08T13:26:52;100591.66;;;23.73;39.52
78313;BME280;67568;47.438;21.408;2023-08-08T13:29:18;100597.50;;;23.88;39.15
78313;BME280;67568;47.438;21.408;2023-08-08T13:31:45;100587.72;;;23.82;38.11
78313;BME280;67568;47.438;21.408;2023-08-08T13:34:12;100595.44;;;23.85;37.46
78313;BME280;67568;47.438;21.408;2023-08-08T13:36:39;100599.25;;;23.66;32.88
78313;BME280;67568;47.438;21.408;2023-08-08T13:39:07;100603.09;;;23.81;36.01
78313;BME280;67568;47.438;21.408;2023-08-08T13:41:34;100591.84;;;23.54;36.46
78313;BME280;67568;47.438;21.408;2023-08-08T13:44:01;100596.03;;;23.67;36.45
78313;BME280;67568;47.438;21.408;2023-08-08T13:46:28;100597.41;;;23.77;36.64
78313;BME280;67568;47.438;21.408;2023-08-08T13:48:55;100592.63;;;23.85;35.91
78313;BME280;67568;47.438;21.408;2023-08-08T13:51:22;100599.44;;;23.80;37.95
78313;BME280;67568;47.438;21.408;2023-08-08T13:53:51;100602.03;;;23.96;37.64
78313;BME280;67568;47.438;21.408;2023-08-08T13:56:18;100604.69;;;24.15;37.57
78313;BME280;67568;47.438;21.408;2023-08-08T13:58:45;100600.66;;;24.16;37.89
78313;BME280;67568;47.438;21.408;2023-08-08T14:01:14;100598.53;;;24.06;37.57
78313;BME280;67568;47.438;21.408;2023-08-08T14:03:41;100604.66;;;24.12;37.44
78313;BME280;67568;47.438;21.408;2023-08-08T14:06:08;100600.22;;;24.14;38.48
78313;BME280;67568;47.438;21.408;2023-08-08T14:08:35;100607.53;;;24.19;38.95
78313;BME280;67568;47.438;21.408;2023-08-08T14:11:02;100599.50;;;24.24;38.68
78313;BME280;67568;47.438;21.408;2023-08-08T14:13:29;100601.06;;;24.18;39.73
78313;BME280;67568;47.438;21.408;2023-08-08T14:15:55;100605.59;;;24.27;38.79
78313;BME280;67568;47.438;21.408;2023-08-08T14:18:22;100612.19;;;24.38;40.03
78313;BME280;67568;47.438;21.408;2023-08-08T14:20:49;100602.53;;;24.42;39.40
78313;BME280;67568;47.438;21.408;2023-08-08T14:23:16;100612.53;;;24.33;38.69
78313;BME280;67568;47.438;21.408;2023-08-08T14:25:42;100614.66;;;24.39;40.33
78313;BME280;67568;47.438;21.408;2023-08-08T14:28:09;100613.66;;;24.24;40.49
78313;BME280;67568;47.438;21.408;2023-08-08T14:30:36;100611.25;;;24.27;39.98
78313;BME280;67568;47.438;21.408;2023-08-08T14:33:05;100612.75;;;24.13;40.57
78313;BME280;67568;47.438;21.408;2023-08-08T14:35:32;100611.81;;;24.02;39.75